Time;durP1;ratioP1;P1;durP2;ratioP2;P2;SDS_P1;SDS_P2;PMS_P1;PMS_P2;Temp;Humidity;BMP_temperature;BMP_pressure;BME280_temperature;BME280_humidity;BME280_pressure;Samples;Min_cycle;Max_cycle;Signal;HPM_P1;HPM_P2
2023/07/06 00:01:45;;;;;;;4.75;2.00;;;;;;;14.43;100.00;100308.28;4990982;28;20648;-77
2023/07/06 00:04:14;;;;;;;5.07;2.42;;;;;;;14.70;100.00;100338.19;5000176;28;20306;-79
2023/07/06 00:06:41;;;;;;;3.95;1.80;;;;;;;14.89;100.00;100335.34;4998587;28;20315;-77
2023/07/06 00:09:08;;;;;;;3.60;1.75;;;;;;;14.94;100.00;100353.03;5002525;28;20231;-77
2023/07/06 00:11:37;;;;;;;3.67;1.67;;;;;;;14.79;100.00;100354.97;4921537;28;20244;-78
2023/07/06 00:14:04;;;;;;;3.58;1.75;;;;;;;14.65;100.00;100355.97;5006967;28;20710;-77
2023/07/06 00:16:31;;;;;;;20.40;5.03;;;;;;;14.61;100.00;100366.66;4999405;28;20247;-77
2023/07/06 00:18:58;;;;;;;4.18;2.00;;;;;;;14.55;100.00;100362.25;5001703;28;20235;-78
2023/07/06 00:21:26;;;;;;;8.45;2.95;;;;;;;14.58;100.00;100382.66;4996173;28;20254;-78
2023/07/06 00:23:53;;;;;;;5.47;2.30;;;;;;;14.23;100.00;100386.38;4982532;28;20242;-77
2023/07/06 00:26:20;;;;;;;9.95;3.28;;;;;;;14.31;100.00;100395.22;4997773;28;20219;-79
2023/07/06 00:28:51;;;;;;;7.38;2.47;;;;;;;14.23;100.00;100401.47;4999865;28;20233;-79
2023/07/06 00:31:31;;;;;;;13.70;4.10;;;;;;;14.17;100.00;100394.41;4993071;28;20228;-80
2023/07/06 00:34:04;;;;;;;5.75;2.33;;;;;;;14.28;100.00;100404.97;5002086;28;20218;-79
2023/07/06 00:36:32;;;;;;;9.25;2.92;;;;;;;14.27;100.00;100409.41;4997540;28;20247;-77
2023/07/06 00:39:02;;;;;;;7.85;2.80;;;;;;;13.84;100.00;100408.78;4993902;28;20227;-79
2023/07/06 00:41:30;;;;;;;12.75;3.58;;;;;;;13.89;100.00;100409.63;4989834;28;20733;-78
2023/07/06 00:43:57;;;;;;;6.15;2.10;;;;;;;14.03;100.00;100422.84;5005616;28;20231;-77
2023/07/06 00:46:29;;;;;;;14.98;4.30;;;;;;;13.89;100.00;100424.69;5002361;28;20614;-78
2023/07/06 00:48:56;;;;;;;8.13;2.42;;;;;;;14.05;100.00;100439.69;5004356;28;20230;-78
2023/07/06 00:51:27;;;;;;;16.27;4.47;;;;;;;14.15;100.00;100437.84;4989942;28;20236;-77
2023/07/06 00:54:03;;;;;;;9.10;3.13;;;;;;;14.18;100.00;100452.03;4988432;28;20231;-80
2023/07/06 00:56:36;;;;;;;13.30;3.63;;;;;;;13.61;100.00;100445.19;4976151;28;20223;-79
2023/07/06 00:59:03;;;;;;;7.72;2.10;;;;;;;13.34;100.00;100449.69;4983326;28;20236;-79
2023/07/06 01:01:35;;;;;;;18.88;4.57;;;;;;;13.66;100.00;100464.66;4998474;28;20224;-78
2023/07/06 01:04:04;;;;;;;11.45;2.80;;;;;;;13.76;100.00;100469.94;4992139;28;20304;-77
2023/07/06 01:06:39;;;;;;;17.30;3.97;;;;;;;13.83;100.00;100475.22;4995497;28;20306;-77
2023/07/06 01:09:06;;;;;;;16.00;3.92;;;;;;;13.57;100.00;100470.00;4979239;28;20238;-78
2023/07/06 01:11:35;;;;;;;12.25;3.20;;;;;;;13.37;100.00;100456.75;5001395;28;20325;-77
2023/07/06 01:14:02;;;;;;;8.85;2.40;;;;;;;13.52;100.00;100493.03;4993561;28;20232;-77
2023/07/06 01:16:45;;;;;;;11.98;3.45;;;;;;;13.56;100.00;100490.38;4999772;28;20315;-77
2023/07/06 01:20:04;;;;;;;6.28;1.98;;;;;;;13.27;100.00;100490.41;4981144;28;20231;-78
2023/07/06 01:22:59;;;;;;;17.33;4.25;;;;;;;13.44;100.00;100501.91;4954238;28;20228;-77
2023/07/06 01:25:55;;;;;;;15.45;3.78;;;;;;;13.53;100.00;100495.69;4980400;28;20242;-79
2023/07/06 01:28:45;;;;;;;22.58;5.22;;;;;;;13.51;100.00;100515.19;4977060;28;20235;-79
2023/07/06 01:31:15;;;;;;;12.13;3.03;;;;;;;13.58;100.00;100516.94;4992261;28;20236;-78
2023/07/06 01:33:52;;;;;;;6.00;2.10;;;;;;;13.50;100.00;100516.06;4991723;28;20240;-77
2023/07/06 01:36:28;;;;;;;14.93;3.80;;;;;;;13.23;100.00;100507.25;4978938;28;20239;-77
2023/07/06 01:39:15;;;;;;;11.57;3.05;;;;;;;13.20;100.00;100509.00;4983764;28;20227;-79
2023/07/06 01:41:42;;;;;;;12.85;3.13;;;;;;;13.28;100.00;100520.53;4993252;28;20232;-79
2023/07/06 01:44:14;;;;;;;12.63;3.40;;;;;;;13.05;100.00;100520.50;4976624;28;20228;-79
2023/07/06 01:46:51;;;;;;;9.82;2.53;;;;;;;12.76;100.00;100516.00;4991009;28;20271;-79
2023/07/06 01:49:18;;;;;;;23.85;5.65;;;;;;;12.59;100.00;100512.44;4977996;28;20688;-79
2023/07/06 01:52:03;;;;;;;11.88;3.17;;;;;;;12.50;100.00;100520.38;5006073;28;20586;-79
2023/07/06 01:54:38;;;;;;;17.27;4.10;;;;;;;12.53;100.00;100530.13;4974771;28;20260;-80
2023/07/06 01:57:09;;;;;;;14.48;3.42;;;;;;;12.53;100.00;100538.97;4987783;28;20249;-79
2023/07/06 01:59:37;;;;;;;13.25;3.22;;;;;;;12.76;100.00;100558.47;4986359;28;20235;-80
2023/07/06 02:02:07;;;;;;;11.73;2.70;;;;;;;12.71;100.00;100554.03;4982036;28;20235;-80
2023/07/06 02:04:35;;;;;;;16.00;3.67;;;;;;;12.81;100.00;100566.44;4998789;28;20339;-80
2023/07/06 02:07:04;;;;;;;14.10;3.20;;;;;;;12.87;100.00;100577.06;4975806;28;20228;-79
2023/07/06 02:09:31;;;;;;;21.65;4.70;;;;;;;12.84;100.00;100574.41;4982775;28;20227;-79
2023/07/06 02:11:58;;;;;;;17.17;3.83;;;;;;;12.91;100.00;100581.50;5003413;28;20271;-79
2023/07/06 02:14:25;;;;;;;14.32;3.60;;;;;;;12.90;100.00;100579.72;4987541;28;20254;-79
2023/07/06 02:16:52;;;;;;;9.65;2.47;;;;;;;12.88;100.00;100580.59;5000375;28;20718;-79
2023/07/06 02:19:23;;;;;;;20.42;4.97;;;;;;;12.86;100.00;100580.59;4984796;28;20761;-80
2023/07/06 02:21:50;;;;;;;7.80;2.03;;;;;;;12.96;100.00;100598.31;4989552;28;20235;-80
2023/07/06 02:24:17;;;;;;;12.60;3.10;;;;;;;12.89;100.00;100585.03;5000213;28;20243;-80
2023/07/06 02:26:45;;;;;;;9.57;2.60;;;;;;;12.96;100.00;100597.44;4994341;28;20711;-79
2023/07/06 02:29:14;;;;;;;10.50;2.90;;;;;;;12.97;100.00;100604.50;5001965;28;20240;-80
2023/07/06 02:31:41;;;;;;;9.50;2.55;;;;;;;12.87;100.00;100606.25;4981601;28;20235;-79
2023/07/06 02:34:08;;;;;;;8.20;2.22;;;;;;;12.81;100.00;100599.19;5005901;28;20235;-79
2023/07/06 02:36:36;;;;;;;9.30;2.38;;;;;;;12.74;100.00;100600.03;4989547;28;20233;-79
2023/07/06 02:39:03;;;;;;;10.82;2.88;;;;;;;12.65;100.00;100610.63;4985986;28;20228;-79
2023/07/06 02:41:30;;;;;;;13.18;3.50;;;;;;;12.64;100.00;100606.19;5000248;28;20228;-79
2023/07/06 02:43:59;;;;;;;10.07;2.95;;;;;;;12.63;100.00;100607.09;5005378;28;20251;-79
2023/07/06 02:46:27;;;;;;;13.52;3.53;;;;;;;12.41;100.00;100597.28;4992228;28;20231;-79
2023/07/06 02:48:54;;;;;;;7.90;2.38;;;;;;;12.34;100.00;100606.97;5000968;28;20311;-79
2023/07/06 02:51:22;;;;;;;12.45;3.55;;;;;;;12.34;100.00;100608.72;4988601;28;20236;-80
2023/07/06 02:53:49;;;;;;;5.93;2.00;;;;;;;12.27;100.00;100609.59;5002291;28;20315;-79
2023/07/06 02:56:15;;;;;;;7.38;2.38;;;;;;;12.20;100.00;100607.78;4998249;28;20223;-80
2023/07/06 02:58:42;;;;;;;7.82;2.38;;;;;;;12.29;100.00;100616.66;5008561;28;20267;-79
2023/07/06 03:01:09;;;;;;;10.70;2.88;;;;;;;12.36;100.00;100621.13;4999292;28;20234;-80
2023/07/06 03:03:35;;;;;;;6.90;2.03;;;;;;;12.22;100.00;100628.13;4995781;28;20259;-80
2023/07/06 03:06:03;;;;;;;7.93;2.28;;;;;;;12.30;100.00;100630.81;4981204;28;20236;-79
2023/07/06 03:08:29;;;;;;;11.75;3.38;;;;;;;12.45;100.00;100633.53;4993745;28;20229;-80
2023/07/06 03:10:56;;;;;;;8.10;2.20;;;;;;;12.31;100.00;100637.88;4999560;28;20235;-80
2023/07/06 03:13:25;;;;;;;17.20;5.18;;;;;;;12.39;100.00;100646.78;4994768;28;20243;-80
2023/07/06 03:15:52;;;;;;;9.27;2.53;;;;;;;12.46;100.00;100649.47;4995002;28;20232;-80
2023/07/06 03:18:20;;;;;;;11.70;3.20;;;;;;;12.58;100.00;100651.28;4975249;28;20283;-80
2023/07/06 03:20:48;;;;;;;8.52;2.60;;;;;;;12.64;100.00;100651.31;5000573;28;20286;-79
2023/07/06 03:23:15;;;;;;;8.20;2.35;;;;;;;12.40;100.00;100656.50;4997488;28;20239;-79
2023/07/06 03:25:42;;;;;;;9.98;2.75;;;;;;;12.36;100.00;100652.06;4992689;28;20240;-79
2023/07/06 03:28:08;;;;;;;9.75;2.63;;;;;;;12.48;100.00;100660.97;4995704;28;20227;-80
2023/07/06 03:30:35;;;;;;;8.68;2.50;;;;;;;12.48;100.00;100671.56;4996520;28;20259;-79
2023/07/06 03:33:02;;;;;;;16.70;4.68;;;;;;;12.38;100.00;100669.75;4996680;28;20571;-79
2023/07/06 03:35:28;;;;;;;16.77;4.18;;;;;;;12.36;100.00;100671.50;4988863;28;20314;-80
2023/07/06 03:37:58;;;;;;;8.02;2.38;;;;;;;12.39;100.00;100675.94;5001175;28;20250;-80
2023/07/06 03:40:30;;;;;;;9.80;2.80;;;;;;;12.34;100.00;100683.00;4995560;28;20223;-79
2023/07/06 03:42:58;;;;;;;8.05;2.47;;;;;;;12.34;100.00;100685.63;4990473;28;20233;-80
2023/07/06 03:45:30;;;;;;;57.35;11.77;;;;;;;12.23;100.00;100684.69;4965895;28;20319;-80
2023/07/06 03:47:59;;;;;;;3.90;1.90;;;;;;;11.97;100.00;100674.81;4975278;28;20258;-79
2023/07/06 03:50:26;;;;;;;36.25;7.55;;;;;;;12.06;100.00;100680.16;4989505;28;20232;-80
2023/07/06 03:52:52;;;;;;;4.55;1.90;;;;;;;12.24;100.00;100689.13;4999826;28;20227;-79
2023/07/06 03:55:24;;;;;;;35.78;6.32;;;;;;;12.28;100.00;100694.44;4993716;28;20228;-80
2023/07/06 03:57:51;;;;;;;11.75;4.03;;;;;;;12.28;100.00;100702.41;4999333;28;20322;-79
2023/07/06 04:00:22;;;;;;;47.20;8.23;;;;;;;12.29;100.00;100695.34;4993728;28;20243;-80
2023/07/06 04:02:53;;;;;;;7.72;2.38;;;;;;;12.31;100.00;100712.16;5000105;28;20327;-76
2023/07/06 04:05:27;;;;;;;13.55;3.33;;;;;;;12.30;100.00;100724.50;4993099;28;20227;-77
2023/07/06 04:07:54;;;;;;;11.55;3.05;;;;;;;11.91;100.00;100717.16;4997712;28;20233;-77
2023/07/06 04:10:21;;;;;;;13.52;3.40;;;;;;;11.77;100.00;100710.81;4984387;28;20258;-77
2023/07/06 04:16:36;;;;;;;9.43;2.63;;;;;;;11.85;100.00;100714.47;4996292;28;20226;-77
2023/07/06 04:19:03;;;;;;;8.05;2.35;;;;;;;11.88;100.00;100730.38;4997255;28;20232;-77
2023/07/06 04:21:30;;;;;;;11.32;2.97;;;;;;;11.87;100.00;100730.38;4994985;28;20224;-76
2023/07/06 04:23:57;;;;;;;7.07;2.40;;;;;;;12.15;100.00;100753.56;4983341;28;20262;-77
2023/07/06 04:26:24;;;;;;;21.00;5.32;;;;;;;12.34;100.00;100762.53;4991676;28;20227;-76
2023/07/06 04:29:02;;;;;;;12.68;3.58;;;;;;;12.43;100.00;100782.06;4999641;28;20231;-77
2023/07/06 04:31:29;;;;;;;15.45;4.72;;;;;;;12.36;100.00;100779.34;4992542;28;20228;-78
2023/07/06 04:33:59;;;;;;;15.60;4.60;;;;;;;12.48;100.00;100782.09;4998415;28;20226;-77
2023/07/06 04:36:26;;;;;;;16.55;3.65;;;;;;;12.51;100.00;100784.78;4968163;28;20235;-77
2023/07/06 04:38:53;;;;;;;10.68;3.13;;;;;;;12.53;100.00;100793.63;4993548;28;20231;-78
2023/07/06 04:41:20;;;;;;;13.57;3.90;;;;;;;12.54;100.00;100786.56;5003565;28;20251;-76
2023/07/06 04:43:46;;;;;;;12.75;4.40;;;;;;;12.62;100.00;100808.72;4995463;28;20244;-77
2023/07/06 04:46:13;;;;;;;7.97;2.15;;;;;;;12.62;100.00;100795.44;4994547;28;20254;-77
2023/07/06 04:48:44;;;;;;;4.82;1.95;;;;;;;12.65;100.00;100809.63;5000193;28;20232;-76
2023/07/06 04:51:11;;;;;;;11.27;2.88;;;;;;;12.76;100.00;100813.22;5000514;28;20232;-76
2023/07/06 04:53:38;;;;;;;8.18;2.10;;;;;;;12.87;100.00;100815.06;5000143;28;20326;-76
2023/07/06 04:56:06;;;;;;;4.90;1.80;;;;;;;12.98;100.00;100826.63;4999880;28;20224;-76
2023/07/06 04:58:33;;;;;;;10.18;3.35;;;;;;;13.03;100.00;100833.78;4992776;28;20245;-77
2023/07/06 05:01:06;;;;;;;6.10;2.83;;;;;;;13.12;100.00;100838.25;5028309;23;20229;-80
2023/07/06 05:03:36;;;;;;;21.67;4.65;;;;;;;13.25;100.00;100844.53;4976275;28;20217;-80
2023/07/06 05:06:07;;;;;;;19.35;4.93;;;;;;;13.28;100.00;100840.13;4971765;28;20225;-79
2023/07/06 05:08:34;;;;;;;9.73;2.78;;;;;;;13.43;100.00;100849.94;4970585;28;20263;-79
2023/07/06 05:11:03;;;;;;;9.30;3.25;;;;;;;13.54;100.00;100848.19;4976484;28;20232;-79
2023/07/06 05:13:30;;;;;;;13.77;5.65;;;;;;;13.60;100.00;100836.69;4976682;28;20220;-79
2023/07/06 05:15:57;;;;;;;7.43;2.65;;;;;;;13.73;100.00;100850.03;4982193;28;20220;-81
2023/07/06 05:18:25;;;;;;;11.88;3.67;;;;;;;13.80;100.00;100844.72;4973841;28;20255;-78
2023/07/06 05:20:56;;;;;;;11.00;3.88;;;;;;;13.87;100.00;100841.19;4981897;28;20243;-79
2023/07/06 05:23:28;;;;;;;13.00;4.00;;;;;;;13.91;100.00;100837.66;4986033;28;20231;-78
2023/07/06 05:25:56;;;;;;;14.27;4.43;;;;;;;14.02;100.00;100849.19;4963242;28;20295;-80
2023/07/06 05:28:25;;;;;;;16.23;4.68;;;;;;;14.19;100.00;100838.59;4977299;28;20239;-85
2023/07/06 05:30:52;;;;;;;9.90;3.00;;;;;;;14.29;100.00;100840.38;4981134;28;20228;-81
2023/07/06 05:33:19;;;;;;;36.20;7.57;;;;;;;14.46;100.00;100832.44;4972393;28;20232;-80
2023/07/06 05:35:47;;;;;;;8.88;3.53;;;;;;;14.61;100.00;100838.63;4982578;28;20673;-79
2023/07/06 05:38:18;;;;;;;25.67;5.30;;;;;;;14.62;100.00;100828.88;4961545;28;20228;-78
2023/07/06 05:40:44;;;;;;;6.03;2.42;;;;;;;14.68;100.00;100824.44;4982774;28;20313;-78
2023/07/06 05:43:11;;;;;;;10.45;3.33;;;;;;;14.79;100.00;100818.22;4981810;28;20591;-79
2023/07/06 05:45:38;;;;;;;7.13;2.58;;;;;;;14.77;100.00;100807.56;4972926;28;20286;-77
2023/07/06 05:48:05;;;;;;;8.85;3.05;;;;;;;14.94;100.00;100818.16;4978797;28;20247;-77
2023/07/06 05:50:32;;;;;;;22.08;6.30;;;;;;;15.13;100.00;100817.22;4959813;28;20297;-77
2023/07/06 05:53:01;;;;;;;7.70;2.67;;;;;;;15.14;100.00;100808.34;4984260;28;20318;-77
2023/07/06 05:55:29;;;;;;;25.70;5.80;;;;;;;15.38;100.00;100802.91;4979523;28;20235;-77
2023/07/06 05:57:56;;;;;;;7.75;2.80;;;;;;;15.46;100.00;100799.31;4982403;28;20598;-77
2023/07/06 06:00:24;;;;;;;14.82;4.53;;;;;;;15.42;100.00;100781.56;4949816;28;20229;-77
2023/07/06 06:02:52;;;;;;;8.90;2.90;;;;;;;15.77;100.00;100790.31;4960179;28;20228;-77
2023/07/06 06:05:19;;;;;;;13.45;4.78;;;;;;;15.97;100.00;100793.72;4956434;28;20240;-78
2023/07/06 06:07:45;;;;;;;5.40;2.00;;;;;;;15.93;100.00;100769.75;4955434;28;20249;-78
2023/07/06 06:10:13;;;;;;;6.70;2.65;;;;;;;16.17;100.00;100779.34;4955091;28;20236;-77
2023/07/06 06:12:41;;;;;;;6.55;2.67;;;;;;;16.40;100.00;100771.13;4965534;28;20247;-80
2023/07/06 06:15:08;;;;;;;5.25;2.15;;;;;;;16.74;100.00;100779.72;4970322;28;20233;-80
2023/07/06 06:17:36;;;;;;;4.50;2.20;;;;;;;16.83;100.00;100751.13;4961308;28;20241;-78
2023/07/06 06:20:06;;;;;;;8.05;2.97;;;;;;;16.86;100.00;100727.03;4968346;28;20262;-80
2023/07/06 06:22:33;;;;;;;6.78;2.47;;;;;;;17.06;100.00;100723.28;4967185;28;20251;-80
2023/07/06 06:25:02;;;;;;;5.90;2.40;;;;;;;17.03;100.00;100709.94;4941070;28;20309;-80
2023/07/06 06:27:29;;;;;;;9.43;3.88;;;;;;;17.34;100.00;100716.66;4960910;28;20233;-81
2023/07/06 06:29:56;;;;;;;11.43;5.70;;;;;;;17.19;100.00;100676.78;4968743;28;20229;-81
2023/07/06 06:32:25;;;;;;;14.00;5.10;;;;;;;17.65;100.00;100698.34;4962743;28;20237;-79
2023/07/06 06:34:55;;;;;;;7.78;2.92;;;;;;;17.60;100.00;100686.84;4964382;28;20237;-80
2023/07/06 06:37:21;;;;;;;11.80;4.45;;;;;;;17.96;100.00;100697.88;4959550;28;20297;-80
2023/07/06 06:39:48;;;;;;;9.48;3.38;;;;;;;18.13;100.00;100683.28;4950361;28;20239;-77
2023/07/06 06:42:18;;;;;;;9.25;3.28;;;;;;;18.21;100.00;100659.97;4957098;28;20240;-84
2023/07/06 06:44:45;;;;;;;5.18;2.00;;;;;;;18.20;100.00;100626.09;4961821;28;20232;-85
2023/07/06 06:47:12;;;;;;;4.90;1.85;;;;;;;18.25;100.00;100633.16;4957151;28;20232;-86
2023/07/06 06:49:39;;;;;;;7.00;2.53;;;;;;;18.51;100.00;100620.13;4961978;28;20272;-85
2023/07/06 06:52:06;;;;;;;12.60;4.55;;;;;;;18.43;100.00;100580.13;4958446;28;20247;-81
2023/07/06 06:54:33;;;;;;;4.65;2.30;;;;;;;18.79;100.00;100609.75;4952799;28;20250;-81
2023/07/06 06:57:01;;;;;;;8.35;2.90;;;;;;;18.78;100.00;100574.03;4958757;28;20232;-82
2023/07/06 06:59:28;;;;;;;30.85;7.45;;;;;;;19.03;100.00;100568.09;4957712;28;20236;-82
2023/07/06 07:02:00;;;;;;;7.93;3.00;;;;;;;18.90;100.00;100524.63;4975780;28;20894;-81
2023/07/06 07:04:29;;;;;;;34.42;8.23;;;;;;;19.26;100.00;100538.94;4967905;28;20227;-81
2023/07/06 07:06:56;;;;;;;7.70;2.70;;;;;;;19.51;100.00;100539.22;4963595;28;20220;-81
2023/07/06 07:09:23;;;;;;;28.95;7.70;;;;;;;19.61;100.00;100503.22;4964233;28;20223;-81
2023/07/06 07:11:50;;;;;;;12.02;4.10;;;;;;;19.91;100.00;100509.56;4967369;28;20239;-81
2023/07/06 07:14:17;;;;;;;21.70;6.68;;;;;;;20.27;100.00;100491.50;4956931;28;20325;-81
2023/07/06 07:16:44;;;;;;;10.23;3.45;;;;;;;20.03;100.00;100434.03;4902379;28;20250;-83
2023/07/06 07:19:13;;;;;;;6.63;2.85;;;;;;;19.76;100.00;100397.28;4952351;28;20311;-82
2023/07/06 07:21:40;;;;;;;5.78;2.13;;;;;;;19.80;100.00;100382.84;4961451;28;20228;-82
2023/07/06 07:24:08;;;;;;;6.18;2.20;;;;;;;20.25;100.00;100418.16;4980166;28;20300;-82
2023/07/06 07:26:35;;;;;;;16.08;5.43;;;;;;;20.17;100.00;100390.66;4962993;28;20267;-82
2023/07/06 07:29:03;;;;;;;6.75;2.63;;;;;;;20.34;100.00;100360.59;4965545;28;20232;-82
2023/07/06 07:31:31;;;;;;;12.27;4.20;;;;;;;20.78;100.00;100343.91;4971526;28;20247;-82
2023/07/06 07:33:58;;;;;;;7.95;2.95;;;;;;;20.91;100.00;100311.25;4876173;28;20226;-83
2023/07/06 07:36:25;;;;;;;30.63;7.72;;;;;;;20.88;100.00;100253.09;4961341;28;20232;-82
2023/07/06 07:38:56;;;;;;;7.05;2.78;;;;;;;21.43;100.00;100301.31;4975355;28;20227;-82
2023/07/06 07:41:24;;;;;;;27.83;8.45;;;;;;;21.41;100.00;100242.19;4958418;28;20231;-82
2023/07/06 07:43:51;;;;;;;2.80;1.85;;;;;;;21.85;100.00;100277.25;4974443;28;20228;-82
2023/07/06 07:46:19;;;;;;;18.25;5.63;;;;;;;21.51;100.00;100149.41;4972872;28;20243;-82
2023/07/06 07:48:49;;;;;;;4.20;2.17;;;;;;;21.28;100.00;100093.84;4980136;28;20238;-83
2023/07/06 07:51:21;;;;;;;13.55;4.97;;;;;;;21.05;100.00;100067.84;4967909;28;20223;-82
2023/07/06 07:53:48;;;;;;;1.58;1.08;;;;;;;21.97;100.00;100169.94;4985132;28;20220;-83
2023/07/06 07:56:15;;;;;;;3.42;1.88;;;;;;;22.19;100.00;100137.66;4960012;28;20367;-83
2023/07/06 07:58:47;;;;;;;1.88;1.30;;;;;;;22.38;100.00;100089.22;4953583;28;20232;-83
2023/07/06 08:01:17;;;;;;;6.88;2.83;;;;;;;21.66;100.00;99970.31;4955452;28;20259;-83
2023/07/06 08:03:43;;;;;;;3.38;1.77;;;;;;;22.06;100.00;100019.72;4957099;28;20231;-83
2023/07/06 08:06:14;;;;;;;6.85;2.67;;;;;;;22.78;100.00;100068.53;4964410;28;20232;-83
2023/07/06 08:08:44;;;;;;;4.65;2.03;;;;;;;22.77;100.00;100000.25;4956275;28;20256;-83
2023/07/06 08:11:14;;;;;;;7.10;2.72;;;;;;;23.23;100.00;100000.72;4936544;28;20235;-83
2023/07/06 08:13:44;;;;;;;6.78;2.70;;;;;;;23.20;100.00;99957.72;4933667;28;20280;-82
2023/07/06 08:16:12;;;;;;;5.22;2.20;;;;;;;24.06;100.00;100016.31;4957305;28;20235;-83
2023/07/06 08:18:43;;;;;;;4.95;2.15;;;;;;;23.16;100.00;99802.38;4938416;28;20257;-83
2023/07/06 08:21:10;;;;;;;8.57;3.45;;;;;;;23.42;100.00;99871.19;4955259;28;20236;-81
2023/07/06 08:23:58;;;;;;;7.20;2.95;;;;;;;22.54;100.00;99714.81;4955261;28;20229;-82
2023/07/06 08:26:25;;;;;;;26.67;7.50;;;;;;;22.64;100.00;99808.59;4955484;28;20221;-78
2023/07/06 08:28:52;;;;;;;5.65;2.33;;;;;;;23.91;100.00;99970.25;4960831;28;20272;-80
2023/07/06 08:31:24;;;;;;;32.72;9.10;;;;;;;24.35;100.00;99874.25;4959016;28;20236;-79
2023/07/06 08:33:51;;;;;;;3.10;1.77;;;;;;;23.08;98.81;99659.84;4962956;28;20235;-79
2023/07/06 08:36:20;;;;;;;13.68;4.10;;;;;;;23.94;98.55;99763.97;4958687;28;20307;-79
2023/07/06 08:38:47;;;;;;;2.17;1.30;;;;;;;23.73;88.44;99614.84;4952047;28;20328;-82
2023/07/06 08:41:29;;;;;;;6.40;2.55;;;;;;;24.41;90.67;99693.69;4953216;28;20335;-81
2023/07/06 08:43:59;;;;;;;1.55;1.05;;;;;;;23.82;90.76;99584.63;4938129;28;20320;-82
2023/07/06 08:46:34;;;;;;;21.33;7.43;;;;;;;23.80;87.45;99537.06;4947519;28;20231;-81
2023/07/06 08:49:02;;;;;;;4.68;2.08;;;;;;;22.98;88.86;99432.09;4967086;28;20236;-80
2023/07/06 08:51:36;;;;;;;20.83;6.32;;;;;;;23.23;93.05;99505.25;4918649;28;20224;-81
2023/07/06 08:54:16;;;;;;;4.53;1.98;;;;;;;24.80;99.73;99751.75;4925261;28;20232;-81
2023/07/06 08:56:43;;;;;;;2.75;1.60;;;;;;;24.72;84.65;99551.28;4944481;28;20228;-81
2023/07/06 08:59:15;;;;;;;2.00;1.25;;;;;;;24.17;82.63;99419.56;4939441;28;20216;-81
2023/07/06 09:01:42;;;;;;;1.60;1.08;;;;;;;24.43;86.26;99475.56;4935357;28;20229;-80
2023/07/06 09:04:15;;;;;;;1.25;0.82;;;;;;;24.71;86.97;99500.88;4953313;28;20236;-81
2023/07/06 09:06:54;;;;;;;1.85;1.10;;;;;;;24.30;82.02;99371.91;4906779;28;20237;-82
2023/07/06 09:09:21;;;;;;;14.93;4.68;;;;;;;23.69;88.12;99346.06;4949527;28;20232;-81
2023/07/06 09:11:50;;;;;;;2.03;1.23;;;;;;;24.22;88.29;99415.59;4960044;28;20228;-81
2023/07/06 09:14:19;;;;;;;13.10;4.00;;;;;;;24.61;87.23;99434.81;4937124;28;20232;-82
2023/07/06 09:16:55;;;;;;;1.92;1.20;;;;;;;25.95;82.22;99518.78;4959195;28;20256;-80
2023/07/06 09:19:24;;;;;;;26.27;7.93;;;;;;;24.71;79.89;99304.38;4950385;28;20220;-81
2023/07/06 09:21:56;;;;;;;0.50;0.50;;;;;;;25.43;80.42;99399.63;4958015;28;20693;-81
2023/07/06 09:24:27;;;;;;;17.40;5.65;;;;;;;23.76;77.23;99117.97;4950280;28;20592;-80
2023/07/06 09:27:01;;;;;;;2.10;1.17;;;;;;;23.59;82.83;99178.44;4952045;28;20236;-81
2023/07/06 09:29:32;;;;;;;12.20;4.10;;;;;;;24.28;81.63;99246.00;4952047;28;20279;-82
2023/07/06 09:32:17;;;;;;;3.03;1.58;;;;;;;25.08;82.13;99323.56;4941358;28;20692;-81
2023/07/06 09:34:47;;;;;;;4.85;2.15;;;;;;;26.01;72.28;99330.59;4939669;28;20275;-79
2023/07/06 09:37:14;;;;;;;5.88;2.30;;;;;;;23.97;76.26;99063.50;4957765;28;20287;-77
2023/07/06 09:39:41;;;;;;;5.72;2.70;;;;;;;23.84;81.76;99131.81;4943525;28;20248;-78
2023/07/06 09:42:11;;;;;;;3.03;1.60;;;;;;;24.44;82.15;99223.28;4952608;28;20234;-78
2023/07/06 09:44:42;;;;;;;7.03;3.75;;;;;;;24.54;82.11;99220.81;4946956;28;20232;-79
2023/07/06 09:50:32;;;;;;;5.25;2.30;;;;;;;25.12;78.13;99217.72;5541636;23;20239;-81
2023/07/06 09:52:59;;;;;;;2.72;1.42;;;;;;;25.09;76.33;99173.81;4852463;28;20633;-79
2023/07/06 09:55:29;;;;;;;31.95;12.40;;;;;;;24.99;75.26;99142.97;4934000;28;20231;-78
2023/07/06 09:57:57;;;;;;;1.75;1.20;;;;;;;24.67;74.15;99053.25;4975183;28;20232;-79
2023/07/06 10:00:33;;;;;;;9.63;3.50;;;;;;;24.07;80.11;99040.31;4916086;28;20244;-79
2023/07/06 10:03:33;;;;;;;2.53;1.48;;;;;;;24.90;80.84;99176.91;4941924;28;20258;-78
2023/07/06 10:06:03;;;;;;;4.18;1.88;;;;;;;25.35;75.14;99161.13;4937277;28;20605;-78
2023/07/06 10:08:34;;;;;;;6.47;3.05;;;;;;;24.30;75.99;99014.44;4969974;28;20239;-79
2023/07/06 10:11:36;;;;;;;3.33;1.65;;;;;;;24.53;78.71;99084.81;4922018;28;20232;-79
2023/07/06 10:14:28;;;;;;;4.53;2.10;;;;;;;24.53;77.87;99082.13;4966519;28;20233;-80
2023/07/06 10:17:19;;;;;;;9.10;3.40;;;;;;;24.24;79.20;99037.31;5065949;23;20203;-81
2023/07/06 10:20:05;;;;;;;2.47;1.30;;;;;;;23.97;78.43;98996.00;4940591;28;20347;-79
2023/07/06 10:23:10;;;;;;;4.57;2.25;;;;;;;23.95;75.81;98969.09;4923861;28;20225;-78
2023/07/06 10:26:09;;;;;;;2.53;1.30;;;;;;;24.70;80.18;99104.41;4951183;28;20239;-79
2023/07/06 10:28:39;;;;;;;5.72;2.15;;;;;;;25.04;79.07;99152.50;4945231;28;20247;-78
2023/07/06 10:31:07;;;;;;;3.53;1.85;;;;;;;25.51;81.18;99224.00;4953958;28;20245;-78
2023/07/06 10:34:03;;;;;;;2.72;1.50;;;;;;;25.61;72.69;99130.31;4956722;28;20201;-77
2023/07/06 10:36:32;;;;;;;2.38;1.40;;;;;;;25.60;70.02;99081.72;4959932;28;20216;-77
2023/07/06 10:39:18;;;;;;;2.67;1.13;;;;;;;25.69;68.81;99053.97;4956989;28;20211;-76
2023/07/06 10:41:49;;;;;;;2.15;1.35;;;;;;;25.99;71.53;99097.72;4982760;28;20208;-77
2023/07/06 10:44:46;;;;;;;2.78;1.67;;;;;;;26.52;66.78;99105.47;4980108;28;20318;-76
2023/07/06 10:47:28;;;;;;;3.00;1.65;;;;;;;26.56;62.19;99014.78;4933857;28;20220;-75
2023/07/06 10:50:02;;;;;;;2.15;1.13;;;;;;;26.63;57.45;98913.00;4921719;28;20240;-75
2023/07/06 10:55:11;;;;;;;2.30;1.40;;;;;;;25.64;60.04;98797.09;5267869;23;20235;-85
2023/07/06 10:57:44;;;;;;;3.47;1.65;;;;;;;25.67;60.22;98801.44;4916523;28;20243;-88
2023/07/06 11:00:16;;;;;;;2.53;1.30;;;;;;;25.52;61.06;98771.00;4987831;28;20250;-86
2023/07/06 11:02:44;;;;;;;3.83;2.00;;;;;;;26.59;62.49;98958.47;4900076;28;20315;-85
2023/07/06 11:05:11;;;;;;;7.45;3.10;;;;;;;26.19;59.84;98837.94;4905228;28;20240;-86
2023/07/06 11:07:42;;;;;;;2.22;1.15;;;;;;;25.75;59.70;98778.19;4949858;28;20243;-86
2023/07/06 11:10:21;;;;;;;12.98;4.85;;;;;;;26.22;58.24;98818.75;5105351;23;20193;-80
2023/07/06 11:12:59;;;;;;;3.08;1.55;;;;;;;26.12;60.75;98822.19;4984629;28;20727;-78
2023/07/06 11:15:38;;;;;;;1.60;1.00;;;;;;;25.63;62.67;98768.31;4977443;28;20228;-79
2023/07/06 11:18:23;;;;;;;7.95;3.47;;;;;;;25.64;64.58;98798.94;4961094;28;20264;-81
2023/07/06 11:20:57;;;;;;;4.22;1.92;;;;;;;25.47;61.08;98728.06;4941360;28;20235;-77
2023/07/06 11:23:42;;;;;;;3.67;1.42;;;;;;;25.74;61.92;98781.88;4963411;28;20246;-79
2023/07/06 11:26:39;;;;;;;22.45;6.63;;;;;;;26.90;63.57;98954.13;4915008;28;21303;-76
2023/07/06 11:29:07;;;;;;;31.00;8.90;;;;;;;27.60;60.07;98982.78;4956812;28;20251;-78
2023/07/06 11:31:58;;;;;;;4.00;1.70;;;;;;;27.76;60.35;98985.09;4969748;28;20224;-77
2023/07/06 11:34:50;;;;;;;5.03;1.75;;;;;;;26.73;57.22;98764.81;4953081;28;20322;-78
2023/07/06 11:37:43;;;;;;;5.55;1.88;;;;;;;27.04;58.25;98826.38;4933882;28;20228;-77
2023/07/06 11:41:04;;;;;;;4.45;1.63;;;;;;;27.98;57.80;98942.38;4940088;28;20227;-77
2023/07/06 11:44:01;;;;;;;6.07;2.47;;;;;;;27.71;60.48;98913.00;4967915;28;20239;-77
2023/07/06 11:47:06;;;;;;;5.40;1.92;;;;;;;27.00;58.41;98765.25;4924548;28;20228;-77
2023/07/06 11:49:44;;;;;;;3.90;1.67;;;;;;;27.73;58.65;98880.28;4955911;28;20729;-78